Weather reports worldwide

Advertisment
Bridgefoot, United Kingdom (99137): temperature & dewpoint: 16.01.2020 00:00:00 - 22.01.2020 00:00:00 (GMT)Bridgefoot, United Kingdom (99137): precipitation: 16.01.2020 00:00:00 - 22.01.2020 00:00:00 (GMT)
Date & Time tt [°C] td [°C] rr [mm]
22.01.2020 00:00:00 8,3 8,1 0,0
21.01.2020 23:00:00 8,2 8,0 0,0
21.01.2020 22:00:00 8,1 7,8 0,0
21.01.2020 21:00:00 7,8 7,5 0,0
21.01.2020 20:00:00 7,9 7,5 0,0
21.01.2020 19:00:00 7,7 7,4 0,6
21.01.2020 18:00:00 8,0 7,3 0,0
21.01.2020 17:00:00 8,0 7,3 0,0
21.01.2020 16:00:00 8,1 7,3 0,0
21.01.2020 15:00:00 8,1 7,3 0,0
21.01.2020 14:00:00 8,0 7,2 0,0
21.01.2020 13:00:00 8,2 7,3 0,0
21.01.2020 12:00:00 8,4 - 0,0
21.01.2020 11:00:00 7,7 - 0,0
21.01.2020 10:00:00 7,3 - 0,0
21.01.2020 09:00:00 6,9 - 0,0
21.01.2020 08:00:00 6,7 - 0,0
21.01.2020 07:00:00 6,8 - 0,0
21.01.2020 06:00:00 6,7 - 0,0
21.01.2020 05:00:00 7,4 - 0,0
21.01.2020 04:00:00 7,5 - 0,0
21.01.2020 03:00:00 7,3 - 0,0
21.01.2020 02:00:00 7,1 - 0,0
21.01.2020 01:00:00 7,4 - 0,0
21.01.2020 00:00:00 7,3 - 0,0
20.01.2020 23:00:00 7,2 - 0,0
20.01.2020 22:00:00 7,5 - 0,0
20.01.2020 21:00:00 7,3 - 0,0
20.01.2020 20:00:00 7,0 - 0,0
20.01.2020 19:00:00 7,0 - 0,0
20.01.2020 18:00:00 7,2 - 0,0
20.01.2020 17:00:00 7,2 - 0,0
20.01.2020 16:00:00 7,3 - 0,0
20.01.2020 15:00:00 7,3 - 0,0
20.01.2020 14:00:00 7,3 - 0,0
20.01.2020 13:00:00 7,2 - 0,0
20.01.2020 12:00:00 7,2 - 0,0
20.01.2020 11:00:00 6,4 - 0,0
20.01.2020 10:00:00 6,1 4,4 0,0
20.01.2020 09:00:00 5,5 4,1 0,0
20.01.2020 08:00:00 4,9 4,0 0,0
20.01.2020 07:00:00 4,4 3,3 0,0
20.01.2020 06:00:00 4,8 3,7 0,0
20.01.2020 05:00:00 4,2 2,9 0,0
20.01.2020 04:00:00 4,0 2,8 0,0
20.01.2020 03:00:00 4,6 2,9 0,0
20.01.2020 02:00:00 4,7 2,6 0,0
20.01.2020 01:00:00 4,8 2,3 0,0
20.01.2020 00:00:00 4,7 2,1 0,0
19.01.2020 23:00:00 4,7 2,5 0,0
19.01.2020 22:00:00 5,2 3,1 0,0
19.01.2020 21:00:00 5,3 3,4 0,0
19.01.2020 20:00:00 4,9 3,5 0,0
19.01.2020 19:00:00 5,1 3,5 0,0
19.01.2020 18:00:00 4,9 2,8 0,0
19.01.2020 17:00:00 5,7 4,2 0,0
19.01.2020 16:00:00 5,8 4,7 0,0
19.01.2020 15:00:00 6,1 4,8 0,0
19.01.2020 14:00:00 6,2 4,8 0,0
19.01.2020 13:00:00 6,4 4,8 0,0
19.01.2020 12:00:00 5,1 5,1 0,0
19.01.2020 11:00:00 -0,6 -0,7 0,0
19.01.2020 10:00:00 -2,0 -2,2 0,0
19.01.2020 09:00:00 -2,3 -2,5 0,0
19.01.2020 08:00:00 -4,0 -4,3 0,0
19.01.2020 07:00:00 -4,4 -4,8 0,0
19.01.2020 06:00:00 -4,0 -4,3 0,0
19.01.2020 05:00:00 -4,2 -4,6 0,0
19.01.2020 04:00:00 -4,0 -4,4 0,0
19.01.2020 03:00:00 -3,9 -4,2 0,0
19.01.2020 02:00:00 -3,2 -3,4 0,0
19.01.2020 01:00:00 -3,2 -3,5 0,0
19.01.2020 00:00:00 -2,9 -3,2 0,0
18.01.2020 23:00:00 -2,4 -2,7 0,0
18.01.2020 22:00:00 -1,2 -1,4 0,0
18.01.2020 21:00:00 -0,8 -1,3 0,0
18.01.2020 20:00:00 0,7 0,3 0,0
18.01.2020 19:00:00 1,8 1,1 0,0
18.01.2020 18:00:00 3,0 2,0 0,0
18.01.2020 17:00:00 4,3 2,7 0,0
18.01.2020 16:00:00 4,8 2,4 0,0
18.01.2020 15:00:00 5,5 3,1 0,0
18.01.2020 14:00:00 6,2 3,4 0,2
18.01.2020 13:00:00 5,7 2,8 0,0
18.01.2020 12:00:00 5,8 2,6 0,0
18.01.2020 11:00:00 5,1 2,8 0,0
18.01.2020 10:00:00 4,5 2,7 0,0
18.01.2020 09:00:00 4,5 2,7 0,0
18.01.2020 08:00:00 3,7 2,2 0,0
18.01.2020 07:00:00 2,8 1,6 0,0
18.01.2020 06:00:00 2,3 1,0 0,0
18.01.2020 05:00:00 3,7 1,8 0,0
18.01.2020 04:00:00 3,5 1,8 0,0
18.01.2020 03:00:00 3,1 1,5 0,0
18.01.2020 02:00:00 4,2 1,6 0,0
18.01.2020 01:00:00 4,3 2,6 0,0
18.01.2020 00:00:00 4,9 2,9 0,2
17.01.2020 23:00:00 4,4 2,3 0,0
17.01.2020 22:00:00 4,5 3,0 0,4
17.01.2020 21:00:00 4,1 2,6 0,2
17.01.2020 20:00:00 5,6 3,1 0,0
17.01.2020 19:00:00 4,9 3,1 0,0
17.01.2020 18:00:00 4,6 3,2 0,2
17.01.2020 17:00:00 5,0 3,4 0,2
17.01.2020 16:00:00 6,4 2,8 0,0
17.01.2020 15:00:00 6,8 2,9 0,0
17.01.2020 14:00:00 6,3 2,1 0,0
17.01.2020 13:00:00 6,1 2,1 0,0
17.01.2020 12:00:00 6,2 2,7 0,0
17.01.2020 11:00:00 5,7 2,8 0,0
17.01.2020 10:00:00 5,2 3,6 0,0
17.01.2020 09:00:00 4,8 3,7 0,0
17.01.2020 08:00:00 4,4 3,3 0,0
17.01.2020 07:00:00 4,8 3,9 0,0
17.01.2020 06:00:00 5,1 4,5 0,2
17.01.2020 05:00:00 5,5 4,9 0,0
17.01.2020 04:00:00 6,0 5,3 0,0
17.01.2020 03:00:00 6,2 5,3 2,0
17.01.2020 02:00:00 6,7 5,0 0,2
17.01.2020 01:00:00 7,0 4,5 0,0
17.01.2020 00:00:00 7,5 4,8 0,0
16.01.2020 23:00:00 8,0 5,0 0,0
16.01.2020 22:00:00 8,2 5,2 0,0
16.01.2020 21:00:00 8,4 5,8 0,0
16.01.2020 20:00:00 8,7 7,0 0,2
16.01.2020 19:00:00 10,0 8,9 0,0
16.01.2020 18:00:00 10,2 9,2 0,2
16.01.2020 17:00:00 10,0 9,2 0,8
16.01.2020 16:00:00 9,7 8,2 1,0
16.01.2020 15:00:00 10,6 7,2 0,0
16.01.2020 14:00:00 9,9 6,6 0,2
16.01.2020 13:00:00 9,6 5,8 0,0
16.01.2020 12:00:00 9,6 4,1 0,0
16.01.2020 11:00:00 8,9 3,5 0,0
16.01.2020 10:00:00 8,4 4,4 0,0
16.01.2020 09:00:00 8,3 4,5 0,0
16.01.2020 08:00:00 7,8 4,1 0,0
16.01.2020 07:00:00 7,9 4,1 0,0
16.01.2020 06:00:00 8,0 4,2 0,0
16.01.2020 05:00:00 7,7 4,1 0,0
16.01.2020 04:00:00 7,7 5,2 0,0
16.01.2020 03:00:00 7,8 5,3 0,0
16.01.2020 02:00:00 7,7 5,4 0,0
16.01.2020 01:00:00 7,1 4,2 0,0
16.01.2020 00:00:00 6,9 3,9 0,0

tt = temperature
td = dewpoint
rr = precipitation

Next stations